Time;durP1;ratioP1;P1;durP2;ratioP2;P2;SDS_P1;SDS_P2;PMS_P1;PMS_P2;Temp;Humidity;BMP_temperature;BMP_pressure;BME280_temperature;BME280_humidity;BME280_pressure;Samples;Min_cycle;Max_cycle;Signal;HPM_P1;HPM_P2
2023/03/29 00:01:44;;;;;;;;;;;;;;;-3.31;100.00;101103.06;5036107;28;19925;-77
2023/03/29 00:04:12;;;;;;;;;;;;;;;-3.32;100.00;101096.66;5053997;28;19913;-78
2023/03/29 00:06:37;;;;;;;;;;;;;;;-3.32;100.00;101093.06;5036545;28;19919;-78
2023/03/29 00:09:04;;;;;;;;;;;;;;;-3.32;100.00;101101.44;5036317;28;19920;-77
2023/03/29 00:11:30;;;;;;;;;;;;;;;-3.35;100.00;101097.44;5019818;28;19956;-77
2023/03/29 00:13:55;;;;;;;;;;;;;;;-3.35;100.00;101094.66;5054084;28;20017;-78
2023/03/29 00:16:20;;;;;;;;;;;;;;;-3.34;100.00;101089.88;5036070;28;19912;-78
2023/03/29 00:18:46;;;;;;;;;;;;;;;-3.35;100.00;101093.84;5053776;28;19946;-78
2023/03/29 00:21:11;;;;;;;;;;;;;;;-3.36;100.00;101095.00;5053573;28;19917;-78
2023/03/29 00:23:36;;;;;;;;;;;;;;;-3.38;100.00;101092.59;5053597;28;19935;-77
2023/03/29 00:26:01;;;;;;;;;;;;;;;-3.39;100.00;101095.78;5053524;28;20006;-77
2023/03/29 00:28:27;;;;;;;;;;;;;;;-3.38;100.00;101095.38;5053748;28;20270;-76
2023/03/29 00:30:52;;;;;;;;;;;;;;;-3.39;100.00;101095.78;5053512;28;19923;-76
2023/03/29 00:33:19;;;;;;;;;;;;;;;-3.40;100.00;101089.38;5053561;28;19913;-78
2023/03/29 00:35:45;;;;;;;;;;;;;;;-3.39;100.00;101093.78;5053706;28;20337;-78
2023/03/29 00:38:10;;;;;;;;;;;;;;;-3.41;100.00;101098.13;5053211;28;20382;-78
2023/03/29 00:40:40;;;;;;;;;;;;;;;-3.42;100.00;101096.53;5052618;28;20011;-78
2023/03/29 00:43:08;;;;;;;;;;;;;;;-3.44;100.00;101093.31;5053331;28;20004;-77
2023/03/29 00:45:34;;;;;;;;;;;;;;;-3.46;100.00;101084.50;5018967;28;19917;-78
2023/03/29 00:48:01;;;;;;;;;;;;;;;-3.48;100.00;101087.66;5053145;28;19913;-78
2023/03/29 00:50:30;;;;;;;;;;;;;;;-3.48;100.00;101093.25;5053569;28;19920;-77
2023/03/29 00:52:59;;;;;;;;;;;;;;;-3.49;100.00;101088.88;5053578;28;19913;-78
2023/03/29 00:55:26;;;;;;;;;;;;;;;-3.47;100.00;101085.69;5053126;28;19913;-78
2023/03/29 00:57:52;;;;;;;;;;;;;;;-3.47;100.00;101086.47;5034952;28;19916;-78
2023/03/29 01:00:21;;;;;;;;;;;;;;;-3.48;100.00;101084.09;5033716;28;21449;-78
2023/03/29 01:02:49;;;;;;;;;;;;;;;-3.50;100.00;101081.66;5050876;28;19998;-78
2023/03/29 01:05:19;;;;;;;;;;;;;;;-3.50;100.00;101081.66;5033544;28;19917;-79
2023/03/29 01:07:49;;;;;;;;;;;;;;;-3.50;100.00;101078.06;5033033;28;19917;-79
2023/03/29 01:10:17;;;;;;;;;;;;;;;-3.50;100.00;101069.69;5050938;28;20037;-77
2023/03/29 01:12:45;;;;;;;;;;;;;;;-3.50;100.00;101064.09;5033376;28;20118;-77
2023/03/29 01:15:11;;;;;;;;;;;;;;;-3.50;100.00;101064.91;5033569;28;20382;-77
2023/03/29 01:17:37;;;;;;;;;;;;;;;-3.50;100.00;101064.09;5052272;28;19936;-76
2023/03/29 01:20:09;;;;;;;;;;;;;;;-3.50;100.00;101069.69;5052520;28;20281;-78
2023/03/29 01:23:13;;;;;;;;;;;;;;;-3.50;100.00;101061.31;5034001;28;19923;-78
2023/03/29 01:25:41;;;;;;;;;;;;;;;-3.53;100.00;101062.06;5008427;28;20201;-77
2023/03/29 01:28:10;;;;;;;;;;;;;;;-3.54;100.00;101061.28;5008669;28;20304;-78
2023/03/29 01:30:37;;;;;;;;;;;;;;;-3.84;100.00;101015.78;5012777;28;19967;-78
2023/03/29 01:33:22;;;;;;;;;;;;;;;-3.55;100.00;101061.63;5016383;28;19966;-78
2023/03/29 01:35:49;;;;;;;;;;;;;;;-3.54;100.00;101054.88;5051787;28;20011;-78
2023/03/29 01:38:17;;;;;;;;;;;;;;;-3.53;100.00;101050.91;5034835;28;19939;-77
2023/03/29 01:40:42;;;;;;;;;;;;;;;-3.51;100.00;101048.53;5052852;28;20001;-76
2023/03/29 01:43:17;;;;;;;;;;;;;;;-3.54;100.00;101047.31;5034990;28;19963;-77
2023/03/29 01:45:46;;;;;;;;;;;;;;;-3.54;100.00;101046.50;5052737;28;20340;-77
2023/03/29 01:48:15;;;;;;;;;;;;;;;-3.54;100.00;101040.91;5018354;28;19924;-78
2023/03/29 01:50:45;;;;;;;;;;;;;;;-3.56;100.00;101041.28;5052824;28;19920;-77
2023/03/29 01:53:13;;;;;;;;;;;;;;;-3.55;100.00;101047.69;5056677;28;19924;-77
2023/03/29 01:55:39;;;;;;;;;;;;;;;-3.57;100.00;101047.22;5038649;28;20297;-76
2023/03/29 01:58:06;;;;;;;;;;;;;;;-3.59;100.00;101047.63;5056481;28;19916;-78
2023/03/29 02:00:31;;;;;;;;;;;;;;;-3.61;100.00;101044.41;5056674;28;19996;-76
2023/03/29 02:02:58;;;;;;;;;;;;;;;-3.59;100.00;101046.81;5038242;28;20361;-79
2023/03/29 02:05:25;;;;;;;;;;;;;;;-3.62;100.00;101040.00;5038836;28;19920;-79
2023/03/29 02:07:51;;;;;;;;;;;;;;;-3.63;100.00;101037.59;5038333;28;20333;-77
2023/03/29 02:10:17;;;;;;;;;;;;;;;-3.64;100.00;101045.16;5056138;28;20273;-76
2023/03/29 02:12:42;;;;;;;;;;;;;;;-3.65;100.00;101046.34;5056294;28;19912;-78
2023/03/29 02:15:11;;;;;;;;;;;;;;;-3.66;100.00;101043.91;5038352;28;20012;-78
2023/03/29 02:17:37;;;;;;;;;;;;;;;-3.68;100.00;101035.13;5056242;28;19920;-77
2023/03/29 02:20:21;;;;;;;;;;;;;;;-3.70;100.00;101034.69;5037998;28;19917;-79
2023/03/29 02:22:57;;;;;;;;;;;;;;;-3.71;100.00;101035.88;5055923;28;19959;-78
2023/03/29 02:25:23;;;;;;;;;;;;;;;-3.71;100.00;101033.88;5038585;28;20266;-78
2023/03/29 02:27:49;;;;;;;;;;;;;;;-3.70;100.00;101040.28;5055962;28;20435;-77
2023/03/29 02:30:15;;;;;;;;;;;;;;;-3.69;100.00;101041.91;5037878;28;19913;-79
2023/03/29 02:32:58;;;;;;;;;;;;;;;-3.68;100.00;101037.94;5038566;28;19962;-78
2023/03/29 02:35:35;;;;;;;;;;;;;;;-3.67;100.00;101036.72;5038099;28;19917;-77
2023/03/29 02:38:02;;;;;;;;;;;;;;;-3.67;100.00;101031.13;5038019;28;19967;-79
2023/03/29 02:40:27;;;;;;;;;;;;;;;-3.69;100.00;101031.53;5055576;28;19913;-78
2023/03/29 02:42:54;;;;;;;;;;;;;;;-3.70;100.00;101034.69;5037550;28;20274;-78
2023/03/29 02:45:19;;;;;;;;;;;;;;;-3.69;100.00;101025.16;5037886;28;19966;-78
2023/03/29 02:47:55;;;;;;;;;;;;;;;-3.68;100.00;101019.19;5037966;28;19912;-78
2023/03/29 02:50:20;;;;;;;;;;;;;;;-3.67;100.00;101025.56;5038086;28;19946;-77
2023/03/29 02:52:51;;;;;;;;;;;;;;;-3.64;100.00;101019.22;5055553;28;20003;-78
2023/03/29 02:55:16;;;;;;;;;;;;;;;-3.63;100.00;101013.28;5037679;28;20286;-77
2023/03/29 02:57:42;;;;;;;;;;;;;;;-3.60;100.00;101006.13;5037660;28;19913;-78
2023/03/29 03:00:09;;;;;;;;;;;;;;;-3.59;100.00;101005.75;5037473;28;19913;-78
2023/03/29 03:02:34;;;;;;;;;;;;;;;-3.56;100.00;101007.75;5054824;28;19924;-77
2023/03/29 03:05:00;;;;;;;;;;;;;;;-3.50;100.00;101011.84;5055249;28;20219;-77
2023/03/29 03:07:25;;;;;;;;;;;;;;;-3.45;100.00;101005.91;5037144;28;19919;-77
2023/03/29 03:09:50;;;;;;;;;;;;;;;-3.41;100.00;101006.75;5037147;28;19917;-77
2023/03/29 03:12:16;;;;;;;;;;;;;;;-3.36;100.00;101002.81;5055490;28;20019;-77
2023/03/29 03:14:41;;;;;;;;;;;;;;;-3.33;100.00;101000.06;5055711;28;19948;-78
2023/03/29 03:17:06;;;;;;;;;;;;;;;-3.29;100.00;100996.53;5037666;28;20351;-78
2023/03/29 03:19:32;;;;;;;;;;;;;;;-3.26;100.00;100996.56;5037662;28;20012;-78
2023/03/29 03:21:58;;;;;;;;;;;;;;;-3.22;100.00;100994.59;5056525;28;19917;-78
2023/03/29 03:24:23;;;;;;;;;;;;;;;-3.17;100.00;100996.25;5055550;28;20362;-76
2023/03/29 03:26:49;;;;;;;;;;;;;;;-3.13;100.00;100986.72;5055521;28;19958;-78
2023/03/29 03:29:15;;;;;;;;;;;;;;;-3.07;100.00;100989.97;5055393;28;20362;-78
2023/03/29 03:31:40;;;;;;;;;;;;;;;-3.02;100.00;100984.84;5054983;28;19913;-77
2023/03/29 03:34:08;;;;;;;;;;;;;;;-2.95;100.00;100982.13;5054633;28;19966;-77
2023/03/29 03:36:33;;;;;;;;;;;;;;;-2.90;100.00;100978.19;5036678;28;19917;-78
2023/03/29 03:39:00;;;;;;;;;;;;;;;-2.84;100.00;100967.47;5054312;28;19969;-77
2023/03/29 03:41:25;;;;;;;;;;;;;;;-2.78;100.00;100972.28;5054675;28;20007;-77
2023/03/29 03:43:51;;;;;;;;;;;;;;;-2.74;100.00;100972.34;5036562;28;20017;-79
2023/03/29 03:46:17;;;;;;;;;;;;;;;-2.73;100.00;100965.53;5036242;28;20136;-78
2023/03/29 03:48:43;;;;;;;;;;;;;;;-2.71;100.00;100960.38;5036625;28;19912;-78
2023/03/29 03:51:10;;;;;;;;;;;;;;;-2.70;100.00;100967.59;5036458;28;20011;-77
2023/03/29 03:53:35;;;;;;;;;;;;;;;-2.71;100.00;100963.97;5036303;28;19988;-80
2023/03/29 03:56:07;;;;;;;;;;;;;;;-2.71;100.00;100975.16;5052654;28;20322;-77
2023/03/29 03:58:32;;;;;;;;;;;;;;;-2.70;100.00;100953.59;5033969;28;19917;-78
2023/03/29 04:00:58;;;;;;;;;;;;;;;-2.70;100.00;100953.59;5034052;28;20020;-77
2023/03/29 04:03:23;;;;;;;;;;;;;;;-2.70;100.00;100960.00;5051982;28;19955;-78
2023/03/29 04:05:48;;;;;;;;;;;;;;;-2.69;100.00;100961.56;5017503;28;19959;-77
2023/03/29 04:08:14;;;;;;;;;;;;;;;-2.71;100.00;100960.38;5017318;28;19966;-78
2023/03/29 04:10:39;;;;;;;;;;;;;;;-2.74;100.00;100963.97;5051822;28;20406;-77
2023/03/29 04:13:04;;;;;;;;;;;;;;;-2.76;100.00;100955.13;5053834;28;19912;-78
2023/03/29 04:15:31;;;;;;;;;;;;;;;-2.75;100.00;100951.16;5034071;28;19916;-77
2023/03/29 04:17:58;;;;;;;;;;;;;;;-2.74;100.00;100950.75;5053357;28;20384;-77
2023/03/29 04:20:25;;;;;;;;;;;;;;;-2.70;100.00;100954.41;5035751;28;19921;-78
2023/03/29 04:22:52;;;;;;;;;;;;;;;-2.65;100.00;100944.84;5035711;28;19970;-78
2023/03/29 04:25:20;;;;;;;;;;;;;;;-2.61;100.00;100951.28;5035864;28;19924;-78
2023/03/29 04:27:47;;;;;;;;;;;;;;;-2.56;100.00;100942.53;5036250;28;19917;-77
2023/03/29 04:30:14;;;;;;;;;;;;;;;-2.53;100.00;100942.53;5035370;28;19917;-78
2023/03/29 04:32:39;;;;;;;;;;;;;;;-2.50;100.00;100949.38;5053444;28;20010;-78
2023/03/29 04:35:05;;;;;;;;;;;;;;;-2.78;100.00;100895.97;5035869;28;19971;-78
2023/03/29 04:37:31;;;;;;;;;;;;;;;-2.46;100.00;100948.19;5053573;28;19932;-78
2023/03/29 04:40:01;;;;;;;;;;;;;;;-2.45;100.00;100946.22;5035604;28;19928;-77
2023/03/29 04:42:28;;;;;;;;;;;;;;;-2.41;100.00;100941.44;5035985;28;20456;-77
2023/03/29 04:45:01;;;;;;;;;;;;;;;-2.39;100.00;100946.63;5049607;28;19913;-76
2023/03/29 04:47:31;;;;;;;;;;;;;;;-2.37;100.00;100947.84;5034549;28;19924;-78
2023/03/29 04:49:56;;;;;;;;;;;;;;;-2.39;100.00;100950.22;5036175;28;19913;-78
2023/03/29 04:52:23;;;;;;;;;;;;;;;-2.37;100.00;100953.44;5053613;28;20001;-77
2023/03/29 04:54:49;;;;;;;;;;;;;;;-2.36;100.00;100954.25;5053283;28;20465;-72
2023/03/29 04:57:15;;;;;;;;;;;;;;;-2.37;100.00;100947.84;5053136;28;20354;-73
2023/03/29 04:59:42;;;;;;;;;;;;;;;-2.34;100.00;100954.66;5053468;28;19941;-73
2023/03/29 05:02:07;;;;;;;;;;;;;;;-2.28;100.00;100950.31;5030935;28;19921;-74
2023/03/29 05:04:33;;;;;;;;;;;;;;;-2.23;100.00;100950.75;5033238;28;19923;-75
2023/03/29 05:07:00;;;;;;;;;;;;;;;-2.14;100.00;100950.41;5033235;28;19913;-75
2023/03/29 05:09:27;;;;;;;;;;;;;;;-2.09;100.00;100939.63;5033206;28;19913;-74
2023/03/29 05:11:54;;;;;;;;;;;;;;;-2.02;100.00;100939.69;5033550;28;20274;-74
2023/03/29 05:14:19;;;;;;;;;;;;;;;-1.95;100.00;100935.34;5032197;28;20031;-76
2023/03/29 05:16:46;;;;;;;;;;;;;;;-1.90;100.00;100940.56;5032481;28;19913;-76
2023/03/29 05:19:11;;;;;;;;;;;;;;;-1.89;100.00;100937.34;5031994;28;19924;-77
2023/03/29 05:21:37;;;;;;;;;;;;;;;-1.87;100.00;100929.38;5031961;28;20270;-75
2023/03/29 05:24:03;;;;;;;;;;;;;;;-1.83;100.00;100926.56;5032048;28;19920;-74
2023/03/29 05:26:28;;;;;;;;;;;;;;;-1.79;100.00;100935.78;5033844;28;19913;-75
2023/03/29 05:28:54;;;;;;;;;;;;;;;-1.74;100.00;100935.41;5036153;28;19936;-75
2023/03/29 05:31:19;;;;;;;;;;;;;;;-1.72;100.00;100939.44;5051416;28;19920;-77
2023/03/29 05:33:47;;;;;;;;;;;;;;;-1.66;100.00;100928.66;5036750;28;20024;-76
2023/03/29 05:36:13;;;;;;;;;;;;;;;-1.62;100.00;100932.28;5052290;28;19913;-76
2023/03/29 05:38:39;;;;;;;;;;;;;;;-1.52;100.00;100922.31;5035422;28;19918;-77
2023/03/29 05:41:05;;;;;;;;;;;;;;;-1.44;100.00;100929.53;5036293;28;19940;-76
2023/03/29 05:43:30;;;;;;;;;;;;;;;-1.39;100.00;100932.75;5050940;28;20004;-76
2023/03/29 05:45:56;;;;;;;;;;;;;;;-1.33;100.00;100948.00;5035286;28;19913;-74
2023/03/29 05:48:22;;;;;;;;;;;;;;;-1.23;100.00;100935.19;5052087;28;20330;-76
2023/03/29 05:50:47;;;;;;;;;;;;;;;-1.17;100.00;100930.81;5036977;28;20274;-76
2023/03/29 05:53:13;;;;;;;;;;;;;;;-1.10;100.00;100924.41;5036947;28;19985;-76
2023/03/29 05:55:38;;;;;;;;;;;;;;;-1.04;100.00;100929.22;5035863;28;19913;-76
2023/03/29 05:58:03;;;;;;;;;;;;;;;-0.96;100.00;100922.41;5049616;28;19921;-76
2023/03/29 06:00:30;;;;;;;;;;;;;;;-0.87;100.00;100922.84;5032960;28;19924;-76
2023/03/29 06:02:56;;;;;;;;;;;;;;;-0.75;100.00;100928.03;5029208;28;20436;-75
2023/03/29 06:05:21;;;;;;;;;;;;;;;-0.59;100.00;100918.44;5014507;28;19913;-76
2023/03/29 06:07:51;;;;;;;;;;;;;;;-0.46;100.00;100920.41;5014010;28;19999;-75
2023/03/29 06:10:17;;;;;;;;;;;;;;;-0.28;100.00;100917.59;5006359;28;19936;-79
2023/03/29 06:12:42;;;;;;;;;;;;;;;-0.17;100.00;100912.75;5016646;28;20012;-79
2023/03/29 06:15:09;;;;;;;;;;;;;;;0.02;100.00;100906.66;5011476;28;20449;-76
2023/03/29 06:17:36;;;;;;;;;;;;;;;1.01;100.00;100902.53;5006803;28;19924;-78
2023/03/29 06:20:09;;;;;;;;;;;;;;;3.52;100.00;100907.16;5014645;28;20000;-77
2023/03/29 06:22:35;;;;;;;;;;;;;;;6.66;100.00;100915.22;5016875;28;20330;-78
2023/03/29 06:25:03;;;;;;;;;;;;;;;8.92;94.53;100925.75;5015286;28;20346;-78
2023/03/29 06:27:28;;;;;;;;;;;;;;;9.65;77.83;100939.06;5014163;28;19918;-78
2023/03/29 06:29:53;;;;;;;;;;;;;;;9.58;68.86;100944.28;5016276;28;19936;-78
2023/03/29 06:32:18;;;;;;;;;;;;;;;9.41;65.72;100943.72;5015761;28;19914;-78
2023/03/29 06:34:45;;;;;;;;;;;;;;;9.30;64.59;100945.44;5016167;28;20415;-77
2023/03/29 06:37:10;;;;;;;;;;;;;;;9.48;64.87;100939.81;5014631;28;19918;-76
2023/03/29 06:39:36;;;;;;;;;;;;;;;9.78;63.62;100938.97;5014337;28;19918;-78
2023/03/29 06:42:01;;;;;;;;;;;;;;;10.01;62.68;100938.38;5014720;28;20376;-76
2023/03/29 06:44:27;;;;;;;;;;;;;;;10.11;59.19;100945.69;4998063;28;20060;-77
2023/03/29 06:46:53;;;;;;;;;;;;;;;10.17;58.50;100943.00;5015964;28;20370;-78
2023/03/29 06:49:18;;;;;;;;;;;;;;;10.32;57.06;100941.13;5016298;28;19924;-76
2023/03/29 06:51:43;;;;;;;;;;;;;;;10.63;58.37;100934.44;5016195;28;20114;-77
2023/03/29 06:54:10;;;;;;;;;;;;;;;11.04;56.85;100930.84;5016114;28;19957;-77
2023/03/29 06:56:35;;;;;;;;;;;;;;;11.44;54.23;100933.44;5014483;28;20311;-76
2023/03/29 06:59:01;;;;;;;;;;;;;;;12.13;53.33;100926.66;5013860;28;19925;-76
2023/03/29 07:01:27;;;;;;;;;;;;;;;12.79;49.96;100923.59;5021563;28;19970;-75
2023/03/29 07:03:53;;;;;;;;;;;;;;;13.12;48.60;100930.72;5037847;28;19912;-76
2023/03/29 07:06:19;;;;;;;;;;;;;;;13.19;45.33;100931.59;5043783;28;20366;-74
2023/03/29 07:08:49;;;;;;;;;;;;;;;12.93;46.07;100932.19;5037199;28;19912;-75
2023/03/29 07:11:17;;;;;;;;;;;;;;;12.72;45.66;100932.56;5037785;28;19917;-76
2023/03/29 07:13:43;;;;;;;;;;;;;;;12.63;45.43;100921.97;5055119;28;19917;-75
2023/03/29 07:16:12;;;;;;;;;;;;;;;12.52;44.65;100931.16;5037107;28;19917;-75
2023/03/29 07:18:38;;;;;;;;;;;;;;;12.49;45.22;100935.00;5054515;28;19928;-76
2023/03/29 07:21:04;;;;;;;;;;;;;;;12.65;45.79;100939.50;5055086;28;19923;-74
2023/03/29 07:23:30;;;;;;;;;;;;;;;12.99;45.96;100933.09;5054847;28;19913;-76
2023/03/29 07:25:56;;;;;;;;;;;;;;;13.17;44.61;100934.97;5037145;28;20361;-77
2023/03/29 07:28:21;;;;;;;;;;;;;;;13.20;44.10;100931.09;5055094;28;20243;-75
2023/03/29 07:30:46;;;;;;;;;;;;;;;13.36;44.03;100929.78;5036738;28;19967;-76
2023/03/29 07:33:12;;;;;;;;;;;;;;;13.80;44.36;100932.59;5054652;28;20323;-80
2023/03/29 07:35:38;;;;;;;;;;;;;;;14.53;41.39;100922.84;5054853;28;20362;-77
2023/03/29 07:38:04;;;;;;;;;;;;;;;15.60;39.41;100934.88;5019770;28;20340;-78
2023/03/29 07:40:30;;;;;;;;;;;;;;;16.78;37.99;100925.50;5054490;28;20350;-75
2023/03/29 07:42:55;;;;;;;;;;;;;;;18.17;34.29;100932.03;5035659;28;19913;-76
2023/03/29 07:45:22;;;;;;;;;;;;;;;19.53;32.70;100929.38;5054644;28;20347;-80
2023/03/29 07:47:49;;;;;;;;;;;;;;;20.23;30.65;100921.81;5040830;28;19917;-72
2023/03/29 07:50:22;;;;;;;;;;;;;;;20.30;29.73;100920.44;5053936;28;19950;-70
2023/03/29 07:52:48;;;;;;;;;;;;;;;20.03;29.80;100916.50;5054624;28;19913;-72
2023/03/29 07:55:13;;;;;;;;;;;;;;;19.87;30.86;100912.44;5054317;28;19913;-73
2023/03/29 07:57:39;;;;;;;;;;;;;;;19.78;30.22;100909.13;5054346;28;19920;-72
2023/03/29 08:00:18;;;;;;;;;;;;;;;19.81;30.19;100913.81;5054307;28;19925;-73
2023/03/29 08:02:48;;;;;;;;;;;;;;;20.02;29.30;100899.66;5037211;28;19955;-72
2023/03/29 08:05:14;;;;;;;;;;;;;;;20.38;29.35;100906.88;5019855;28;19916;-72
2023/03/29 08:07:41;;;;;;;;;;;;;;;20.81;28.73;100916.31;5053820;28;19920;-72
2023/03/29 08:10:07;;;;;;;;;;;;;;;20.77;28.26;100910.03;5053963;28;19914;-72
2023/03/29 08:12:33;;;;;;;;;;;;;;;20.26;28.71;100874.28;5036007;28;20054;-72
2023/03/29 08:14:58;;;;;;;;;;;;;;;20.39;28.83;100894.72;5035897;28;19962;-73
2023/03/29 08:17:24;;;;;;;;;;;;;;;20.53;27.93;100901.38;5054018;28;19948;-71
2023/03/29 08:19:50;;;;;;;;;;;;;;;20.58;27.93;100861.97;5035369;28;20042;-73
2023/03/29 08:22:15;;;;;;;;;;;;;;;20.78;27.65;100885.47;5051327;28;20004;-75
2023/03/29 08:24:41;;;;;;;;;;;;;;;21.18;27.53;100885.66;5053212;28;20011;-74
2023/03/29 08:27:06;;;;;;;;;;;;;;;21.62;26.74;100878.28;5053788;28;19913;-73
2023/03/29 08:29:32;;;;;;;;;;;;;;;21.64;26.39;100873.47;5053530;28;19916;-74
2023/03/29 08:31:57;;;;;;;;;;;;;;;21.87;27.58;100867.22;5053282;28;19913;-74
2023/03/29 08:34:22;;;;;;;;;;;;;;;22.25;27.04;100871.50;5053301;28;19919;-74
2023/03/29 08:36:49;;;;;;;;;;;;;;;22.23;26.24;100853.78;5018436;28;19913;-74
2023/03/29 08:39:14;;;;;;;;;;;;;;;22.18;26.47;100860.50;5053545;28;19921;-73
2023/03/29 08:41:51;;;;;;;;;;;;;;;22.35;26.71;100857.25;5053438;28;19935;-70
2023/03/29 08:44:37;;;;;;;;;;;;;;;22.82;25.62;100858.00;5053784;28;19920;-71
2023/03/29 08:47:10;;;;;;;;;;;;;;;23.45;25.43;100850.09;5042356;28;19920;-71
2023/03/29 08:49:37;;;;;;;;;;;;;;;24.01;25.11;100866.88;5053548;28;19999;-71
2023/03/29 08:52:04;;;;;;;;;;;;;;;24.69;24.52;100856.91;5035745;28;19921;-72
2023/03/29 08:54:47;;;;;;;;;;;;;;;25.23;23.50;100850.63;5035020;28;19970;-71
2023/03/29 08:57:16;;;;;;;;;;;;;;;25.14;22.94;100845.31;5053051;28;19952;-72
2023/03/29 08:59:41;;;;;;;;;;;;;;;25.08;23.33;100841.81;5034866;28;19923;-73
2023/03/29 09:02:11;;;;;;;;;;;;;;;25.23;23.47;100844.78;5052230;28;19921;-72
2023/03/29 09:04:36;;;;;;;;;;;;;;;25.41;21.82;100834.03;5034746;28;19924;-73
2023/03/29 09:07:03;;;;;;;;;;;;;;;25.54;22.39;100827.22;5053160;28;19913;-73
2023/03/29 09:09:30;;;;;;;;;;;;;;;25.67;21.69;100839.53;5035127;28;19924;-74
2023/03/29 09:12:15;;;;;;;;;;;;;;;25.24;21.75;100834.59;5034858;28;19913;-74
2023/03/29 09:14:46;;;;;;;;;;;;;;;24.93;22.14;100835.94;5052887;28;20259;-73
2023/03/29 09:17:11;;;;;;;;;;;;;;;24.70;22.37;100829.22;5051444;28;20378;-73
2023/03/29 09:19:38;;;;;;;;;;;;;;;24.39;22.39;100826.22;5050764;28;19916;-73
2023/03/29 09:22:09;;;;;;;;;;;;;;;24.06;23.16;100821.34;5035066;28;19924;-71
2023/03/29 09:24:37;;;;;;;;;;;;;;;23.64;23.38;100826.53;5052942;28;20019;-72
2023/03/29 09:27:04;;;;;;;;;;;;;;;23.23;23.76;100818.59;5051323;28;19916;-73
2023/03/29 09:29:33;;;;;;;;;;;;;;;22.71;23.84;100825.44;5035114;28;19913;-73
2023/03/29 09:31:58;;;;;;;;;;;;;;;21.93;23.60;100822.09;5034825;28;19916;-73
2023/03/29 09:34:30;;;;;;;;;;;;;;;21.16;24.69;100815.63;5034389;28;19962;-74
2023/03/29 09:36:58;;;;;;;;;;;;;;;20.46;25.87;100819.91;5052648;28;20358;-72
2023/03/29 09:39:26;;;;;;;;;;;;;;;19.83;25.84;100827.84;5034448;28;20330;-72
2023/03/29 09:41:58;;;;;;;;;;;;;;;19.21;27.56;100808.75;5035043;28;19966;-73
2023/03/29 09:44:44;;;;;;;;;;;;;;;18.75;27.85;100821.22;5034627;28;19913;-73
2023/03/29 09:47:18;;;;;;;;;;;;;;;18.20;28.75;100811.53;5052119;28;20377;-74
2023/03/29 09:49:44;;;;;;;;;;;;;;;17.60;29.01;100808.38;5052359;28;20322;-71
2023/03/29 09:52:13;;;;;;;;;;;;;;;17.24;29.65;100806.63;5052638;28;20358;-72
2023/03/29 09:54:39;;;;;;;;;;;;;;;17.16;30.82;100808.44;5034691;28;20270;-73
2023/03/29 09:57:04;;;;;;;;;;;;;;;17.06;31.27;100812.91;5034357;28;19924;-72
2023/03/29 09:59:29;;;;;;;;;;;;;;;16.82;31.21;100807.69;5018136;28;20432;-70
2023/03/29 10:02:04;;;;;;;;;;;;;;;16.62;31.58;100811.59;5052186;28;19967;-72
2023/03/29 10:04:31;;;;;;;;;;;;;;;16.19;32.12;100810.19;5052403;28;19924;-72
2023/03/29 10:06:56;;;;;;;;;;;;;;;15.95;32.10;100814.31;5052442;28;19912;-73
2023/03/29 10:09:22;;;;;;;;;;;;;;;15.68;32.17;100807.09;5034578;28;19913;-74
2023/03/29 10:11:52;;;;;;;;;;;;;;;15.60;32.80;100796.59;5034956;28;20008;-75
2023/03/29 10:14:20;;;;;;;;;;;;;;;15.70;32.70;100792.19;5038230;28;19917;-73
2023/03/29 10:16:46;;;;;;;;;;;;;;;15.66;33.27;100786.66;5056002;28;19964;-73
2023/03/29 10:19:20;;;;;;;;;;;;;;;15.94;33.79;100788.88;5039092;28;19927;-71
2023/03/29 10:21:48;;;;;;;;;;;;;;;16.30;33.13;100790.03;5056078;28;19920;-70
2023/03/29 10:24:17;;;;;;;;;;;;;;;16.40;32.61;100794.25;5038535;28;20230;-72
2023/03/29 10:26:42;;;;;;;;;;;;;;;16.52;32.74;100790.03;5055897;28;19913;-72
2023/03/29 10:29:09;;;;;;;;;;;;;;;16.53;32.56;100780.91;5056152;28;20326;-72
2023/03/29 10:31:40;;;;;;;;;;;;;;;16.75;32.22;100785.09;5038225;28;19916;-70
2023/03/29 10:34:05;;;;;;;;;;;;;;;16.79;31.40;100772.00;5055772;28;19917;-75
2023/03/29 10:36:30;;;;;;;;;;;;;;;16.79;32.00;100776.97;5056687;28;19920;-74
2023/03/29 10:38:56;;;;;;;;;;;;;;;16.84;31.86;100764.66;5038033;28;20255;-76
2023/03/29 10:41:22;;;;;;;;;;;;;;;16.93;31.81;100775.94;5037913;28;19923;-79
2023/03/29 10:43:49;;;;;;;;;;;;;;;16.79;31.50;100777.78;5056046;28;20000;-77
2023/03/29 10:46:28;;;;;;;;;;;;;;;16.49;31.10;100768.03;5040593;28;19924;-78
2023/03/29 10:48:56;;;;;;;;;;;;;;;16.14;31.59;100759.84;5055486;28;20377;-77
2023/03/29 10:51:22;;;;;;;;;;;;;;;16.00;32.65;100750.13;5037729;28;19923;-74
2023/03/29 10:53:47;;;;;;;;;;;;;;;16.05;32.50;100754.31;5037627;28;19929;-77
2023/03/29 10:56:33;;;;;;;;;;;;;;;15.87;32.33;100751.88;5055059;28;19917;-77
2023/03/29 10:59:02;;;;;;;;;;;;;;;15.84;32.72;100747.16;5055269;28;19921;-72
2023/03/29 11:01:27;;;;;;;;;;;;;;;16.06;33.10;100742.25;5055156;28;19912;-73
2023/03/29 11:04:04;;;;;;;;;;;;;;;16.30;32.85;100738.91;5055195;28;20004;-72
2023/03/29 11:06:42;;;;;;;;;;;;;;;16.50;32.25;100740.75;5037193;28;19920;-73
2023/03/29 11:09:21;;;;;;;;;;;;;;;16.55;32.01;100732.09;5037505;28;19913;-70
2023/03/29 11:11:46;;;;;;;;;;;;;;;16.67;32.71;100730.00;5055047;28;20385;-74
2023/03/29 11:14:14;;;;;;;;;;;;;;;16.80;31.32;100738.13;5053907;28;19967;-70
2023/03/29 11:16:55;;;;;;;;;;;;;;;16.80;32.37;100724.47;5037397;28;19952;-70
2023/03/29 11:19:24;;;;;;;;;;;;;;;16.78;31.33;100730.00;5054939;28;19917;-71
2023/03/29 11:21:54;;;;;;;;;;;;;;;16.60;30.80;100718.97;5054862;28;19999;-70
2023/03/29 11:24:22;;;;;;;;;;;;;;;16.50;31.59;100711.91;5053255;28;20293;-73
2023/03/29 11:26:55;;;;;;;;;;;;;;;16.46;31.62;100702.69;5054643;28;20350;-74
2023/03/29 11:29:39;;;;;;;;;;;;;;;16.30;31.21;100695.63;5054973;28;19917;-73
2023/03/29 11:32:06;;;;;;;;;;;;;;;16.05;32.01;100708.19;5055935;28;19924;-69
2023/03/29 11:34:31;;;;;;;;;;;;;;;15.86;31.65;100707.88;5054833;28;19920;-73
2023/03/29 11:37:13;;;;;;;;;;;;;;;15.64;31.27;100696.28;5055182;28;19913;-73
2023/03/29 11:39:39;;;;;;;;;;;;;;;15.52;31.69;100689.66;5054558;28;20003;-74
2023/03/29 11:42:13;;;;;;;;;;;;;;;15.46;32.10;100691.75;5054862;28;19921;-73
2023/03/29 11:44:39;;;;;;;;;;;;;;;15.36;32.33;100684.66;5019797;28;19963;-72
2023/03/29 11:47:06;;;;;;;;;;;;;;;15.45;32.96;100672.09;5054559;28;19957;-72
2023/03/29 11:49:32;;;;;;;;;;;;;;;15.53;31.95;100676.03;5036613;28;19992;-69
2023/03/29 11:51:58;;;;;;;;;;;;;;;15.52;32.31;100677.34;5054320;28;20321;-70
2023/03/29 11:54:29;;;;;;;;;;;;;;;15.18;32.63;100659.94;5054577;28;20002;-72
2023/03/29 11:57:03;;;;;;;;;;;;;;;14.82;33.32;100660.81;5054200;28;20300;-70
2023/03/29 11:59:35;;;;;;;;;;;;;;;14.43;33.28;100660.50;5035384;28;19916;-70
2023/03/29 12:02:06;;;;;;;;;;;;;;;13.99;34.23;100658.84;5036333;28;20405;-71
2023/03/29 12:04:35;;;;;;;;;;;;;;;13.62;33.86;100665.75;5054063;28;20238;-71
2023/03/29 12:07:10;;;;;;;;;;;;;;;13.25;34.37;100659.81;5036499;28;20285;-71
2023/03/29 12:09:56;;;;;;;;;;;;;;;13.00;35.35;100653.50;5019907;28;20369;-71
2023/03/29 12:12:41;;;;;;;;;;;;;;;12.82;35.47;100650.91;5053868;28;19982;-73
2023/03/29 12:15:19;;;;;;;;;;;;;;;12.65;36.37;100649.91;5054145;28;19913;-71
2023/03/29 12:18:03;;;;;;;;;;;;;;;12.43;36.06;100655.28;5036217;28;19913;-73
2023/03/29 12:20:30;;;;;;;;;;;;;;;12.13;37.22;100640.19;5054309;28;19917;-72
2023/03/29 12:22:56;;;;;;;;;;;;;;;11.96;38.60;100650.56;5036145;28;19921;-74
2023/03/29 12:25:40;;;;;;;;;;;;;;;11.87;39.41;100647.78;5036129;28;20358;-73
2023/03/29 12:28:18;;;;;;;;;;;;;;;11.81;40.41;100645.63;5053678;28;20389;-71
2023/03/29 12:30:50;;;;;;;;;;;;;;;11.96;40.04;100644.84;5052764;28;20330;-74
2023/03/29 12:33:16;;;;;;;;;;;;;;;12.16;40.62;100648.56;5050691;28;19948;-80
2023/03/29 12:35:44;;;;;;;;;;;;;;;12.20;38.79;100643.44;5052106;28;20362;-77
2023/03/29 12:38:18;;;;;;;;;;;;;;;12.10;38.68;100635.44;5052408;28;19924;-82